Time;durP1;ratioP1;P1;durP2;ratioP2;P2;SDS_P1;SDS_P2;PMS_P1;PMS_P2;Temp;Humidity;BMP_temperature;BMP_pressure;BME280_temperature;BME280_humidity;BME280_pressure;Samples;Min_cycle;Max_cycle;Signal;HPM_P1;HPM_P2
2022/05/02 00:05:13;;;;;;;16.55;13.40;;;;;;;9.04;75.22;101321.41;4857073;28;20104;-81
2022/05/02 00:08:05;;;;;;;16.90;13.18;;;;;;;9.11;74.63;101328.59;4985451;28;20056;-82
2022/05/02 00:10:50;;;;;;;17.85;13.77;;;;;;;8.94;74.84;101322.22;4938254;29;20096;-82
2022/05/02 00:13:31;;;;;;;15.85;13.63;;;;;;;8.93;75.86;101331.00;4998403;28;20088;-82
2022/05/02 00:16:55;;;;;;;18.13;13.38;;;;;;;8.91;76.05;101329.47;5046020;28;20055;-83
2022/05/02 00:19:58;;;;;;;;;;;;;;;;;;;;;
2022/05/02 00:22:45;;;;;;;16.83;13.23;;;;;;;8.75;76.54;101316.88;5021282;28;20137;-84
2022/05/02 00:35:54;;;;;;;;;;;;;;;;;;;;;
2022/05/02 00:38:41;;;;;;;19.40;14.68;;;;;;;8.39;76.66;101284.22;5023865;28;20129;-80
2022/05/02 00:41:32;;;;;;;;;;;;;;;;;;;;;
2022/05/02 00:44:15;;;;;;;18.60;14.40;;;;;;;8.46;76.86;101295.81;5052127;28;20121;-80
2022/05/02 00:46:45;;;;;;;18.08;14.35;;;;;;;8.41;76.86;101292.75;5058436;28;20123;-80
2022/05/02 00:49:14;;;;;;;18.67;14.75;;;;;;;8.36;76.95;101288.88;5057575;28;20064;-83
2022/05/02 01:02:59;;;;;;;16.95;13.35;;;;;;;8.25;77.01;101269.66;4927046;28;20061;-81
2022/05/02 01:05:32;;;;;;;16.45;14.15;;;;;;;8.21;76.74;101270.88;4902271;28;20589;-80
2022/05/02 01:11:22;;;;;;;19.00;14.38;;;;;;;8.11;76.83;101243.91;4957390;28;20051;-82
2022/05/02 01:28:34;;;;;;;20.70;16.13;;;;;;;8.36;76.15;101254.97;4924567;29;20480;-80
2022/05/02 01:33:28;;;;;;;18.65;14.85;;;;;;;8.55;75.99;101263.72;5068070;28;20049;-80
2022/05/02 01:35:55;;;;;;;23.23;15.73;;;;;;;8.61;75.72;101268.44;5077837;28;20092;-81
2022/05/02 01:38:21;;;;;;;18.98;14.75;;;;;;;8.66;75.72;101260.22;5076813;28;20113;-79
2022/05/02 01:40:48;;;;;;;19.00;15.35;;;;;;;8.68;75.45;101260.09;5078062;28;20055;-80
2022/05/02 01:43:16;;;;;;;19.30;15.38;;;;;;;8.73;75.31;101261.38;5077792;28;20426;-80
2022/05/02 01:45:43;;;;;;;19.00;14.50;;;;;;;8.71;74.93;101258.06;5077733;28;20140;-81
2022/05/02 01:48:10;;;;;;;16.65;14.38;;;;;;;8.82;74.62;101252.78;5077791;28;20443;-78
2022/05/02 01:50:37;;;;;;;18.98;14.57;;;;;;;8.77;75.04;101249.72;5077329;28;20055;-80
2022/05/02 01:53:03;;;;;;;19.73;15.23;;;;;;;8.85;74.95;101254.31;5077400;28;20064;-80
2022/05/02 01:55:30;;;;;;;19.20;15.25;;;;;;;8.87;75.11;101252.38;5077602;28;20507;-81
2022/05/02 01:57:57;;;;;;;20.08;15.77;;;;;;;8.83;75.05;101251.81;5077636;28;20132;-80
2022/05/02 02:00:25;;;;;;;17.75;14.65;;;;;;;8.81;75.25;101252.91;5076841;28;20052;-79
2022/05/02 02:02:51;;;;;;;17.88;15.23;;;;;;;8.81;75.13;101243.28;5076276;28;20052;-78
2022/05/02 02:08:02;;;;;;;20.75;16.08;;;;;;;8.90;75.58;101258.19;5074110;28;20106;-78
2022/05/02 02:10:29;;;;;;;18.58;14.82;;;;;;;8.93;75.04;101252.69;5075754;28;20131;-80
2022/05/02 02:12:56;;;;;;;20.45;15.85;;;;;;;8.90;75.84;101246.91;5076529;28;20135;-80
2022/05/02 02:15:22;;;;;;;22.10;15.63;;;;;;;8.94;76.19;101246.53;5075851;28;20049;-79
2022/05/02 02:17:50;;;;;;;19.63;15.50;;;;;;;8.97;75.99;101243.66;5076603;28;20049;-79
2022/05/02 02:20:17;;;;;;;18.95;15.35;;;;;;;8.96;75.71;101238.56;5076379;28;20051;-79
2022/05/02 02:22:44;;;;;;;22.70;15.55;;;;;;;9.01;75.77;101253.81;5076414;28;20083;-79
2022/05/02 02:25:11;;;;;;;19.77;16.33;;;;;;;8.96;76.36;101249.84;5075975;28;20201;-79
2022/05/02 02:27:38;;;;;;;19.08;16.15;;;;;;;8.95;76.26;101248.19;5076900;28;20087;-79
2022/05/02 02:30:05;;;;;;;23.45;16.25;;;;;;;9.03;76.27;101244.88;5074622;28;20148;-79
2022/05/02 02:32:32;;;;;;;22.83;17.00;;;;;;;9.04;76.73;101249.16;5077074;28;20135;-80
2022/05/02 02:35:00;;;;;;;19.73;16.33;;;;;;;9.02;76.94;101245.03;5078828;28;20139;-80
2022/05/02 02:37:27;;;;;;;21.85;16.95;;;;;;;8.87;77.33;101242.78;5076384;28;20094;-80
2022/05/02 02:39:53;;;;;;;22.23;16.98;;;;;;;8.86;78.28;101240.31;5076418;28;20044;-81
2022/05/02 02:42:22;;;;;;;21.95;16.70;;;;;;;8.87;77.62;101236.72;5076785;28;20052;-79
2022/05/02 02:44:49;;;;;;;20.20;17.08;;;;;;;8.82;77.94;101234.50;5076100;28;20539;-78
2022/05/02 02:47:16;;;;;;;20.50;16.77;;;;;;;8.75;78.43;101243.81;5076250;28;20053;-79
2022/05/02 02:49:42;;;;;;;24.58;17.42;;;;;;;8.77;79.23;101230.63;5075319;28;20045;-79
2022/05/02 02:52:10;;;;;;;20.55;17.35;;;;;;;8.80;79.08;101228.59;5076201;28;20084;-79
2022/05/02 02:54:37;;;;;;;24.42;18.42;;;;;;;8.74;79.63;101230.88;5075899;28;20112;-80
2022/05/02 02:57:04;;;;;;;26.27;18.98;;;;;;;8.66;80.48;101231.53;5075712;28;20140;-79
2022/05/02 02:59:30;;;;;;;23.88;17.98;;;;;;;8.70;80.37;101225.09;5075569;28;20469;-78
2022/05/02 03:01:58;;;;;;;24.45;18.65;;;;;;;8.60;80.71;101214.59;5075547;28;20058;-80
2022/05/02 03:07:10;;;;;;;22.55;18.20;;;;;;;8.69;80.23;101212.19;5075876;28;20125;-80
2022/05/02 03:09:37;;;;;;;25.27;19.33;;;;;;;8.62;80.51;101217.09;5074807;28;20049;-80
2022/05/02 03:12:05;;;;;;;23.20;19.25;;;;;;;8.62;80.40;101214.47;5075501;28;20048;-79
2022/05/02 03:14:32;;;;;;;23.40;18.88;;;;;;;8.54;80.88;101215.13;5075777;28;20131;-79
2022/05/02 03:16:58;;;;;;;25.88;19.42;;;;;;;8.56;81.08;101212.38;5076882;28;20060;-80
2022/05/02 03:19:26;;;;;;;25.45;19.45;;;;;;;8.56;81.48;101213.22;5074993;28;20471;-80
2022/05/02 03:21:52;;;;;;;24.65;19.95;;;;;;;8.51;81.15;101217.97;5075045;28;20048;-79
2022/05/02 03:24:20;;;;;;;24.35;19.23;;;;;;;8.57;80.72;101214.03;5075360;28;20499;-78
2022/05/02 03:26:47;;;;;;;29.00;20.63;;;;;;;8.55;80.99;101211.56;5078146;28;20131;-80
2022/05/02 03:29:14;;;;;;;24.75;19.98;;;;;;;8.55;81.67;101218.56;5080487;28;20083;-81
2022/05/02 03:31:41;;;;;;;21.83;18.98;;;;;;;8.60;81.15;101216.38;5080813;28;20067;-81
2022/05/02 03:34:08;;;;;;;24.98;19.95;;;;;;;8.66;80.98;101221.09;5076976;28;20589;-80
2022/05/02 03:36:35;;;;;;;26.70;20.58;;;;;;;8.64;80.56;101217.78;5076271;28;20098;-80
2022/05/02 03:39:02;;;;;;;28.20;20.50;;;;;;;8.69;80.96;101217.41;5074563;28;20072;-79
2022/05/02 03:41:30;;;;;;;24.35;19.45;;;;;;;8.69;80.48;101217.41;5074877;28;20052;-79
2022/05/02 03:43:57;;;;;;;24.10;20.38;;;;;;;8.64;80.73;101209.97;5075283;28;20582;-79
2022/05/02 03:46:23;;;;;;;24.73;20.42;;;;;;;8.68;80.64;101203.53;5074717;28;20566;-81
2022/05/02 03:48:50;;;;;;;26.38;20.13;;;;;;;8.58;80.87;101206.09;5074224;28;20045;-81
2022/05/02 03:51:17;;;;;;;25.85;19.88;;;;;;;8.59;80.92;101199.91;5075143;28;20495;-80
2022/05/02 03:53:44;;;;;;;26.23;20.60;;;;;;;8.55;81.41;101206.34;5075668;28;20102;-80
2022/05/02 03:56:12;;;;;;;25.30;20.88;;;;;;;8.46;81.84;101201.09;5075441;28;20059;-79
2022/05/02 03:58:40;;;;;;;26.70;21.02;;;;;;;8.45;81.92;101199.44;5075399;28;20052;-79
2022/05/02 04:01:07;;;;;;;25.30;19.80;;;;;;;8.35;82.53;101194.16;5073258;28;20050;-78
2022/05/02 04:03:33;;;;;;;26.95;20.05;;;;;;;8.32;82.86;101199.59;5076608;28;20132;-79
2022/05/02 04:06:00;;;;;;;28.17;20.80;;;;;;;8.30;82.34;101215.38;5078857;28;20135;-79
2022/05/02 04:08:26;;;;;;;29.70;21.35;;;;;;;8.35;82.27;101203.75;5075406;28;20068;-78
2022/05/02 04:10:53;;;;;;;26.48;20.98;;;;;;;8.42;82.78;101210.13;5075888;28;20075;-80
2022/05/02 04:13:20;;;;;;;28.15;21.10;;;;;;;8.50;82.50;101207.72;5075175;28;20127;-79
2022/05/02 04:15:49;;;;;;;28.88;20.73;;;;;;;8.42;82.67;101204.91;5074925;28;20044;-80
2022/05/02 04:18:16;;;;;;;25.67;20.45;;;;;;;8.49;82.40;101201.66;5074276;28;20106;-81
2022/05/02 04:20:43;;;;;;;28.25;20.70;;;;;;;8.45;82.50;101199.44;5075260;28;20076;-80
2022/05/02 04:23:10;;;;;;;24.30;20.58;;;;;;;8.49;83.17;101201.66;5077237;28;20059;-79
2022/05/02 04:25:36;;;;;;;23.25;20.30;;;;;;;8.50;82.76;101192.88;5080792;28;20135;-80
2022/05/02 04:28:03;;;;;;;27.45;21.15;;;;;;;8.54;82.47;101199.47;5079565;28;20136;-80
2022/05/02 04:30:30;;;;;;;28.33;20.98;;;;;;;8.55;82.34;101205.50;5080561;28;20108;-80
2022/05/02 04:32:58;;;;;;;28.70;21.67;;;;;;;8.60;81.82;101205.97;5077197;28;20161;-80
2022/05/02 04:35:24;;;;;;;29.10;20.77;;;;;;;8.66;81.90;101213.28;5075806;28;20131;-80
2022/05/02 04:37:51;;;;;;;27.40;21.40;;;;;;;8.74;80.84;101216.06;5074849;28;20132;-79
2022/05/02 04:40:18;;;;;;;26.70;20.75;;;;;;;8.80;80.91;101222.53;5076532;28;20426;-80
2022/05/02 04:42:44;;;;;;;26.15;21.08;;;;;;;8.85;81.21;101215.97;5075208;28;20391;-80
2022/05/02 04:45:11;;;;;;;26.40;20.65;;;;;;;8.81;81.40;101216.38;5077063;28;20079;-81
2022/05/02 04:47:38;;;;;;;26.00;20.63;;;;;;;8.74;81.90;101210.84;5077358;28;20055;-81
2022/05/02 04:50:07;;;;;;;25.20;20.67;;;;;;;8.80;81.94;101205.09;5078510;28;20131;-80
2022/05/02 04:52:34;;;;;;;26.48;21.60;;;;;;;8.84;81.74;101208.28;5079070;28;20539;-80
2022/05/02 04:55:00;;;;;;;25.70;21.35;;;;;;;8.77;81.80;101204.53;5079218;28;20587;-80
2022/05/02 04:57:27;;;;;;;27.50;21.23;;;;;;;8.85;82.29;101208.16;5078479;28;20108;-80
2022/05/02 04:59:53;;;;;;;31.95;22.35;;;;;;;8.81;81.84;101211.16;5078403;28;20056;-80
2022/05/02 05:02:20;;;;;;;26.88;20.88;;;;;;;8.78;82.15;101221.84;5078290;28;20191;-81
2022/05/02 05:04:47;;;;;;;26.98;22.08;;;;;;;8.79;82.38;101205.25;5078233;28;20518;-81
2022/05/02 05:07:15;;;;;;;28.98;21.75;;;;;;;9.07;81.32;101216.75;5080542;28;20083;-81
2022/05/02 05:09:41;;;;;;;28.50;22.17;;;;;;;9.14;80.53;101217.88;5077960;28;20537;-79
2022/05/02 05:12:17;;;;;;;27.30;22.15;;;;;;;9.18;80.07;101222.69;5077932;28;20048;-80
2022/05/02 05:17:52;;;;;;;26.95;21.38;;;;;;;9.37;79.60;101214.09;5077645;28;20134;-80
2022/05/02 05:20:26;;;;;;;25.30;20.70;;;;;;;9.44;79.16;101223.06;5077804;28;20044;-80
2022/05/02 05:23:26;;;;;;;26.77;22.00;;;;;;;9.34;79.15;101219.59;5077420;28;20132;-81
2022/05/02 05:26:08;;;;;;;32.65;22.02;;;;;;;9.61;78.20;101225.00;5079471;28;20477;-79
2022/05/02 05:28:57;;;;;;;25.77;21.10;;;;;;;9.47;79.20;101220.16;5082823;28;20107;-80
2022/05/02 05:31:32;;;;;;;31.73;22.10;;;;;;;9.62;78.53;101212.75;5078470;28;20057;-80
2022/05/02 05:34:06;;;;;;;28.10;21.50;;;;;;;9.73;78.54;101217.03;5077890;28;20514;-79
2022/05/02 05:36:49;;;;;;;27.65;20.75;;;;;;;9.78;78.26;101217.47;5077608;28;20048;-81
2022/05/02 05:39:26;;;;;;;;;;;;;;;9.79;78.33;101213.88;5080135;28;20044;-80
2022/05/02 05:42:07;;;;;;;28.10;21.20;;;;;;;9.81;78.24;101211.97;5077164;28;20272;-79
2022/05/02 05:44:53;;;;;;;27.52;21.17;;;;;;;9.86;77.92;101217.59;5077685;28;20057;-80
2022/05/02 05:47:43;;;;;;;30.33;23.15;;;;;;;9.81;78.51;101214.56;5079458;28;20413;-79
2022/05/02 05:50:21;;;;;;;29.10;22.45;;;;;;;9.76;78.32;101220.22;5077839;28;20053;-79
2022/05/02 05:53:01;;;;;;;28.63;20.45;;;;;;;9.80;77.83;101218.16;5092336;28;20052;-80
2022/05/02 05:56:18;;;;;;;27.20;21.48;;;;;;;9.99;77.34;101215.53;5101715;28;20078;-80
2022/05/02 05:58:53;;;;;;;30.35;21.15;;;;;;;10.19;76.60;101218.97;5085838;28;20044;-81
2022/05/02 06:01:40;;;;;;;28.80;22.52;;;;;;;10.35;77.07;101221.06;5078686;28;20048;-81
2022/05/02 06:04:10;;;;;;;28.65;21.83;;;;;;;10.27;76.33;101225.19;5080094;28;20079;-81
2022/05/02 06:06:40;;;;;;;27.85;21.75;;;;;;;10.38;76.78;101221.59;5080325;28;20071;-82
2022/05/02 06:22:42;;;;;;;29.05;22.00;;;;;;;11.05;74.42;101230.19;4999726;28;20046;-81
2022/05/02 06:25:22;;;;;;;27.05;21.05;;;;;;;11.13;73.07;101214.59;4940495;29;20062;-81
2022/05/02 06:32:04;;;;;;;;;;;;;;;;;;;;;
2022/05/02 06:35:11;;;;;;;26.08;20.85;;;;;;;11.64;71.15;101222.69;5040550;28;20158;-81
2022/05/02 06:37:51;;;;;;;25.98;21.95;;;;;;;12.26;69.78;101234.09;5042175;28;20080;-81
2022/05/02 06:40:31;;;;;;;26.83;21.83;;;;;;;12.51;69.22;101236.91;5040009;28;20053;-78
2022/05/02 06:43:18;;;;;;;27.70;21.20;;;;;;;12.79;67.68;101234.91;5040062;28;20060;-80
2022/05/02 06:45:54;;;;;;;28.90;20.60;;;;;;;12.86;65.20;101231.53;5040097;28;20392;-80
2022/05/02 06:48:42;;;;;;;26.08;20.63;;;;;;;13.17;64.64;101212.66;5038288;28;20049;-79
2022/05/02 06:51:20;;;;;;;24.50;20.83;;;;;;;13.86;61.92;101237.78;5037612;28;20084;-81
2022/05/02 06:54:25;;;;;;;24.55;19.63;;;;;;;13.73;60.64;101219.84;5039545;28;20045;-79
2022/05/02 06:57:03;;;;;;;26.08;19.67;;;;;;;13.63;61.97;101216.56;5037130;28;20046;-79
2022/05/02 06:59:39;;;;;;;25.75;20.50;;;;;;;13.20;63.89;101225.47;5039734;28;20095;-80
2022/05/02 07:02:32;;;;;;;22.88;19.90;;;;;;;13.08;64.09;101208.31;5044084;28;20080;-77
2022/05/02 07:05:09;;;;;;;22.83;20.35;;;;;;;12.90;64.94;101238.13;5013558;28;20048;-76
2022/05/02 07:07:53;;;;;;;24.35;20.30;;;;;;;13.07;65.20;101223.25;5058246;28;20467;-78
2022/05/02 07:20:06;;;;;;;24.10;19.45;;;;;;;13.31;63.61;101219.91;5492677;22;20050;-80
2022/05/02 07:22:39;;;;;;;26.10;21.25;;;;;;;13.81;62.57;101240.91;5020494;28;20046;-79
2022/05/02 07:25:14;;;;;;;30.10;22.23;;;;;;;13.13;65.59;101230.50;5024061;28;20054;-78
2022/05/02 07:28:01;;;;;;;27.55;21.58;;;;;;;13.44;63.70;101235.25;5024765;28;20054;-78
2022/05/02 07:30:28;;;;;;;26.90;21.83;;;;;;;13.79;62.88;101226.28;5025502;28;20046;-78
2022/05/02 07:32:55;;;;;;;27.73;21.42;;;;;;;14.92;60.41;101226.19;5035070;23;20038;-78
2022/05/02 07:35:26;;;;;;;24.00;20.65;;;;;;;15.51;58.21;101215.22;5015527;28;20105;-78
2022/05/02 07:37:54;;;;;;;26.40;21.08;;;;;;;15.67;57.10;101223.06;5017647;28;20068;-78
2022/05/02 07:40:22;;;;;;;22.40;20.00;;;;;;;15.73;57.36;101226.81;5016119;28;20124;-79
2022/05/02 07:42:53;;;;;;;26.23;21.17;;;;;;;15.79;56.84;101236.66;5015099;28;20112;-78
2022/05/02 07:45:35;;;;;;;26.52;21.60;;;;;;;15.99;56.10;101222.03;5015923;28;20100;-78
2022/05/02 07:48:06;;;;;;;22.75;19.92;;;;;;;16.11;55.17;101217.94;4999909;28;20054;-79
2022/05/02 07:50:44;;;;;;;24.05;20.65;;;;;;;16.98;53.96;101222.72;5018877;28;20114;-80
2022/05/02 07:53:12;;;;;;;21.92;19.55;;;;;;;16.85;53.12;101226.84;5019506;28;20060;-80
2022/05/02 07:55:44;;;;;;;22.20;18.98;;;;;;;17.57;51.05;101215.47;5020292;28;20060;-80
2022/05/02 07:58:29;;;;;;;23.60;19.05;;;;;;;18.02;49.21;101238.16;5019761;28;20050;-81
2022/05/02 08:00:57;;;;;;;20.75;17.40;;;;;;;17.20;49.45;101222.59;5020160;28;20518;-80
2022/05/02 08:03:27;;;;;;;21.17;17.65;;;;;;;17.37;50.49;101217.94;5018639;28;20058;-80
2022/05/02 08:06:10;;;;;;;23.75;19.52;;;;;;;17.34;52.28;101228.88;5018937;28;20042;-80
2022/05/02 08:09:06;;;;;;;28.58;18.50;;;;;;;17.57;50.26;101226.88;5016674;28;20061;-79
2022/05/02 08:11:44;;;;;;;26.05;19.45;;;;;;;18.45;48.72;101224.84;5022815;28;20060;-83
2022/05/02 08:14:34;;;;;;;23.35;18.92;;;;;;;19.04;47.89;101227.06;5035396;28;20110;-80
2022/05/02 08:17:08;;;;;;;23.02;18.65;;;;;;;18.77;47.43;101216.31;5035370;28;20038;-77
2022/05/02 08:19:50;;;;;;;22.27;19.23;;;;;;;19.01;48.09;101217.66;5031799;28;20080;-77
2022/05/02 08:28:03;;;;;;;27.33;20.92;;;;;;;18.26;49.50;101210.44;5016410;28;20137;-79
2022/05/02 08:30:34;;;;;;;23.33;20.95;;;;;;;18.58;48.02;101215.16;5017117;28;20046;-79
2022/05/02 08:33:04;;;;;;;23.53;20.83;;;;;;;18.12;50.53;101209.50;5016447;28;20047;-80
2022/05/02 08:35:52;;;;;;;26.55;21.90;;;;;;;18.62;48.86;101212.97;5018636;28;20046;-79
2022/05/02 08:38:40;;;;;;;29.48;20.48;;;;;;;18.38;49.77;101206.25;5019578;28;20165;-79
2022/05/02 08:41:49;;;;;;;30.08;21.60;;;;;;;18.86;48.76;101209.84;5006781;28;20105;-79
2022/05/02 08:44:53;;;;;;;26.30;21.15;;;;;;;19.07;48.45;101205.44;4988732;28;20054;-80
2022/05/02 08:47:53;;;;;;;23.67;21.10;;;;;;;18.61;48.17;101206.03;4983893;28;20078;-78
2022/05/02 08:50:29;;;;;;;24.58;20.15;;;;;;;19.51;46.81;101202.34;4981898;28;20613;-82
2022/05/02 08:53:42;;;;;;;26.15;21.80;;;;;;;18.37;49.44;101211.75;4980825;28;20054;-79
2022/05/02 08:57:03;;;;;;;26.17;22.50;;;;;;;18.63;47.78;101198.69;4986331;28;20046;-81
2022/05/02 09:00:09;;;;;;;26.92;21.27;;;;;;;18.35;48.75;101205.84;4999819;28;20129;-81
2022/05/02 09:03:19;;;;;;;29.33;20.65;;;;;;;19.25;46.05;101200.41;5000624;28;20046;-81
2022/05/02 09:06:08;;;;;;;22.90;19.55;;;;;;;18.66;46.56;101198.31;4999247;28;20420;-82
2022/05/02 09:09:04;;;;;;;25.42;20.73;;;;;;;17.69;49.01;101197.31;4998172;28;20089;-79
2022/05/02 09:11:40;;;;;;;25.23;19.52;;;;;;;17.94;49.19;101201.22;4997553;28;20129;-79
2022/05/02 09:14:44;;;;;;;23.17;18.20;;;;;;;18.36;48.04;101203.00;4997089;28;20576;-78
2022/05/02 09:17:46;;;;;;;19.65;17.38;;;;;;;18.24;47.49;101186.78;4997107;28;20050;-79
2022/05/02 09:20:30;;;;;;;23.80;17.60;;;;;;;18.21;47.29;101192.47;4996968;28;20118;-80
2022/05/02 09:23:30;;;;;;;21.63;16.20;;;;;;;18.70;46.83;101191.59;4994964;28;20129;-81
2022/05/02 09:26:25;;;;;;;19.02;13.65;;;;;;;18.57;46.49;101183.53;4977978;28;20142;-80
2022/05/02 09:29:10;;;;;;;21.15;14.45;;;;;;;19.20;45.66;101181.63;4969612;28;20114;-82
2022/05/02 09:31:48;;;;;;;19.20;15.68;;;;;;;18.28;47.73;101183.75;4981243;28;20480;-81
2022/05/02 09:34:18;;;;;;;22.92;16.40;;;;;;;18.34;48.94;101193.59;5016631;28;20128;-81
2022/05/02 09:36:55;;;;;;;23.65;17.15;;;;;;;17.76;49.05;101182.31;5019900;28;20117;-81
2022/05/02 09:39:25;;;;;;;20.88;15.80;;;;;;;18.06;49.39;101186.44;5020617;28;20113;-82
2022/05/02 09:42:08;;;;;;;23.98;15.02;;;;;;;18.25;49.82;101179.66;5021178;28;20046;-83
2022/05/02 09:50:49;;;;;;;15.88;14.07;;;;;;;18.61;48.18;101168.09;5021323;28;20056;-79
2022/05/02 09:53:33;;;;;;;18.20;14.82;;;;;;;18.04;48.41;101172.56;5021704;28;20092;-80
2022/05/02 09:58:55;;;;;;;16.50;13.93;;;;;;;18.67;48.47;101173.44;5021208;28;20068;-79
2022/05/02 10:01:26;;;;;;;18.05;15.07;;;;;;;18.48;47.54;101169.63;5022204;28;20060;-78
2022/05/02 10:04:19;;;;;;;19.35;14.15;;;;;;;18.57;49.08;101167.63;5021322;28;20054;-78
2022/05/02 10:06:50;;;;;;;18.10;14.32;;;;;;;18.33;47.53;101153.03;5021499;28;20109;-79
2022/05/02 10:09:40;;;;;;;15.07;13.38;;;;;;;18.66;47.77;101157.72;5003228;28;20054;-81
2022/05/02 10:12:25;;;;;;;18.17;15.15;;;;;;;18.22;47.99;101154.38;5005848;28;20042;-80
2022/05/02 10:15:03;;;;;;;15.45;13.65;;;;;;;18.54;47.78;101149.47;5007120;28;20057;-78
2022/05/02 10:18:03;;;;;;;17.75;14.50;;;;;;;18.41;46.72;101147.59;5010547;28;20049;-79
2022/05/02 10:20:38;;;;;;;16.50;13.40;;;;;;;17.95;47.31;101151.75;5004602;28;20089;-79
2022/05/02 10:23:24;;;;;;;18.30;13.60;;;;;;;18.29;48.06;101153.63;5002871;28;20070;-81
2022/05/02 10:25:55;;;;;;;17.65;13.50;;;;;;;18.59;46.89;101149.72;5002884;28;20077;-77
2022/05/02 10:28:43;;;;;;;14.57;12.88;;;;;;;18.78;45.95;101149.03;5001204;28;20090;-81
2022/05/02 10:31:14;;;;;;;15.73;13.98;;;;;;;18.96;44.35;101140.50;5000438;28;20129;-80
2022/05/02 10:33:44;;;;;;;17.58;13.50;;;;;;;19.11;44.32;101141.19;4999509;28;20097;-82
2022/05/02 10:36:12;;;;;;;14.15;12.20;;;;;;;18.95;45.22;101141.53;5000413;28;20042;-79
2022/05/02 10:38:46;;;;;;;15.13;13.35;;;;;;;19.20;44.34;101141.84;4998714;28;20050;-81
2022/05/02 10:41:18;;;;;;;14.48;12.52;;;;;;;19.43;44.32;101136.16;4999474;28;20150;-79
2022/05/02 10:43:54;;;;;;;15.02;12.60;;;;;;;19.38;44.05;101133.28;5002363;28;20539;-79
2022/05/02 10:46:22;;;;;;;16.25;13.02;;;;;;;19.27;43.82;101132.06;5006456;28;20070;-79
2022/05/02 10:48:54;;;;;;;16.15;14.45;;;;;;;18.42;44.42;101135.16;5007745;28;20507;-81
2022/05/02 10:51:31;;;;;;;19.05;12.57;;;;;;;18.87;44.46;101126.63;5006359;28;20065;-81
2022/05/02 10:54:09;;;;;;;18.27;12.27;;;;;;;19.18;44.09;101131.41;5003333;28;20129;-81
2022/05/02 10:56:42;;;;;;;15.50;12.93;;;;;;;19.00;44.16;101130.34;5000988;28;20093;-85
2022/05/02 10:59:11;;;;;;;16.10;12.95;;;;;;;19.53;43.87;101126.00;4999780;28;20073;-80
2022/05/02 11:02:03;;;;;;;16.33;13.00;;;;;;;19.32;44.03;101119.00;5018474;28;20042;-81
2022/05/02 11:04:42;;;;;;;16.02;13.35;;;;;;;19.51;43.00;101120.06;5023479;28;20058;-82
2022/05/02 11:07:17;;;;;;;15.13;12.77;;;;;;;19.55;43.66;101122.13;5006588;28;20141;-79
2022/05/02 11:09:56;;;;;;;16.08;13.85;;;;;;;19.74;42.30;101117.03;4997899;28;20085;-79
2022/05/02 11:12:31;;;;;;;15.68;13.73;;;;;;;19.16;42.94;101111.41;5007821;28;20209;-79
2022/05/02 11:15:05;;;;;;;17.08;12.45;;;;;;;20.00;42.35;101111.69;5021754;28;20049;-80
2022/05/02 11:17:43;;;;;;;16.50;12.40;;;;;;;20.34;40.06;101109.78;5013560;28;20049;-79
2022/05/02 11:23:37;;;;;;;14.57;13.07;;;;;;;19.64;41.37;101100.69;4991467;28;20054;-79
2022/05/02 11:26:20;;;;;;;19.13;13.32;;;;;;;19.96;41.92;101105.16;5015165;28;20100;-81
2022/05/02 11:29:00;;;;;;;16.48;12.55;;;;;;;20.37;41.48;101086.25;5013751;28;20081;-79
2022/05/02 11:31:36;;;;;;;17.45;13.95;;;;;;;19.53;42.53;101083.53;4996270;28;20089;-79
2022/05/02 11:34:11;;;;;;;13.88;12.40;;;;;;;19.35;42.87;101092.06;5001728;28;20065;-81
2022/05/02 11:36:43;;;;;;;15.23;13.65;;;;;;;19.85;41.66;101097.81;5007141;28;20046;-79
2022/05/02 11:39:15;;;;;;;18.52;13.40;;;;;;;19.73;41.66;101086.19;5011770;28;20111;-81
2022/05/02 11:41:44;;;;;;;15.02;13.18;;;;;;;19.70;42.13;101089.25;4997105;28;20421;-75
2022/05/02 11:44:13;;;;;;;15.85;14.00;;;;;;;18.96;43.19;101081.34;4991891;28;20137;-78
2022/05/02 11:46:57;;;;;;;18.00;14.77;;;;;;;18.87;43.77;101078.91;4997989;28;20396;-78
2022/05/02 11:49:53;;;;;;;16.10;13.90;;;;;;;18.70;44.59;101082.91;4990949;28;20058;-78
2022/05/02 11:52:32;;;;;;;16.40;13.48;;;;;;;19.06;44.44;101081.78;4990138;28;20060;-78
2022/05/02 11:55:00;;;;;;;14.15;12.48;;;;;;;19.75;42.38;101087.63;5012502;28;20417;-81
2022/05/02 11:57:29;;;;;;;16.38;13.65;;;;;;;19.24;42.60;101079.41;5013080;28;20046;-78
2022/05/02 12:00:05;;;;;;;17.05;13.50;;;;;;;19.40;43.26;101081.63;4994688;28;20089;-80
2022/05/02 12:02:42;;;;;;;17.52;13.90;;;;;;;19.92;42.23;101082.69;4994837;28;20080;-80
2022/05/02 12:05:23;;;;;;;15.65;12.05;;;;;;;20.14;42.39;101081.44;4996191;28;20057;-80
2022/05/02 12:07:55;;;;;;;15.50;12.45;;;;;;;20.35;40.99;101076.88;4997182;28;20145;-81
2022/05/02 12:10:35;;;;;;;16.45;12.35;;;;;;;20.45;41.04;101083.41;5004123;28;20062;-80
2022/05/02 12:13:02;;;;;;;15.52;13.93;;;;;;;20.03;41.38;101079.41;4976206;28;20109;-79
2022/05/02 12:15:29;;;;;;;17.67;13.25;;;;;;;20.04;42.30;101077.56;4983186;28;20106;-80
2022/05/02 12:18:03;;;;;;;15.25;13.38;;;;;;;20.05;41.28;101066.72;4996602;28;20117;-79
2022/05/02 12:20:32;;;;;;;16.25;13.52;;;;;;;20.03;42.06;101067.97;4997447;28;20054;-81
2022/05/02 12:23:04;;;;;;;15.18;13.57;;;;;;;19.73;41.66;101079.03;5012106;28;20128;-80
2022/05/02 12:25:32;;;;;;;;;;;;;;;19.58;41.85;101069.63;5017063;28;20137;-81
2022/05/02 12:28:03;;;;;;;14.45;12.80;;;;;;;20.12;41.76;101064.88;4988506;28;20363;-81
2022/05/02 12:30:31;;;;;;;19.67;14.05;;;;;;;20.21;41.42;101065.47;4997959;28;20577;-81
2022/05/02 12:33:03;;;;;;;16.27;13.70;;;;;;;20.01;41.72;101070.81;5001869;28;20108;-80
2022/05/02 12:35:37;;;;;;;;;;;;;;;20.05;40.65;101055.28;5001199;28;20105;-80
2022/05/02 12:38:23;;;;;;;19.38;13.05;;;;;;;20.70;40.32;101064.09;4996249;28;19926;-81
2022/05/02 12:41:02;;;;;;;15.55;13.15;;;;;;;20.80;40.68;101049.28;5004861;28;20471;-80
2022/05/02 12:43:42;;;;;;;16.92;12.65;;;;;;;20.70;39.90;101048.97;5012840;28;20054;-79
2022/05/02 12:46:10;;;;;;;16.08;12.43;;;;;;;20.91;40.37;101050.47;4993170;28;20073;-79
2022/05/02 12:48:42;;;;;;;16.05;12.55;;;;;;;20.81;39.66;101045.59;4991049;28;20431;-79
2022/05/02 12:51:16;;;;;;;15.52;13.43;;;;;;;20.30;40.20;101048.28;5000490;28;20109;-79
2022/05/02 12:56:27;;;;;;;15.50;13.05;;;;;;;20.76;39.44;101048.13;4982981;28;20062;-80
2022/05/02 13:01:46;;;;;;;16.23;13.95;;;;;;;20.49;38.97;101043.94;5013402;28;20138;-78
2022/05/02 13:04:19;;;;;;;15.68;13.63;;;;;;;20.59;39.53;101027.53;5003715;28;20101;-78
2022/05/02 13:06:46;;;;;;;15.30;12.68;;;;;;;20.73;40.15;101042.41;4992880;28;20055;-80
2022/05/02 13:09:16;;;;;;;19.48;13.20;;;;;;;20.32;39.98;101034.78;4997367;28;20048;-79
2022/05/02 13:11:43;;;;;;;18.92;13.55;;;;;;;20.09;40.45;101038.72;4998044;28;20061;-78
2022/05/02 13:14:20;;;;;;;14.65;12.32;;;;;;;20.14;41.45;101033.59;4996111;28;20073;-79
2022/05/02 13:16:48;;;;;;;19.55;13.52;;;;;;;20.00;40.54;101032.00;4995765;28;20046;-80
2022/05/02 13:19:15;;;;;;;14.43;13.02;;;;;;;19.85;41.66;101031.41;4996676;28;20145;-77
2022/05/02 13:21:55;;;;;;;16.63;14.15;;;;;;;19.78;40.88;101022.66;4996639;28;20054;-79
2022/05/02 13:24:21;;;;;;;14.25;12.30;;;;;;;19.81;40.71;101032.88;4996604;28;20149;-78
2022/05/02 13:27:12;;;;;;;14.98;12.70;;;;;;;19.46;40.75;101030.41;5017665;28;20082;-77
2022/05/02 13:30:00;;;;;;;14.48;12.98;;;;;;;19.06;42.35;101018.13;5026459;28;20057;-79
2022/05/02 13:32:29;;;;;;;20.63;15.48;;;;;;;19.33;40.91;101027.78;5029611;28;20591;-76
2022/05/02 13:35:08;;;;;;;18.75;13.35;;;;;;;19.41;41.08;101022.22;5014546;28;20077;-77
2022/05/02 13:37:50;;;;;;;15.98;13.32;;;;;;;19.65;40.72;101020.03;4975167;28;20110;-77
2022/05/02 13:40:18;;;;;;;16.42;12.57;;;;;;;19.63;41.64;101012.25;4979807;28;20072;-77
2022/05/02 13:42:53;;;;;;;16.98;12.43;;;;;;;19.78;40.79;101006.72;5014674;28;20054;-78